Time;durP1;ratioP1;P1;durP2;ratioP2;P2;SDS_P1;SDS_P2;PMS_P1;PMS_P2;Temp;Humidity;BMP_temperature;BMP_pressure;BME280_temperature;BME280_humidity;BME280_pressure;Samples;Min_cycle;Max_cycle;Signal;HPM_P1;HPM_P2
2023/06/05 00:02:01;;;;;;;11.20;6.93;;;8.90;99.90;;;;;;5071336;28;20054;-57
2023/06/05 00:04:27;;;;;;;9.02;7.18;;;9.00;99.90;;;;;;5087781;28;20048;-57
2023/06/05 00:06:54;;;;;;;10.23;7.15;;;9.30;99.90;;;;;;5088886;28;20415;-56
2023/06/05 00:09:19;;;;;;;10.80;7.50;;;9.00;99.90;;;;;;5089650;28;20062;-57
2023/06/05 00:11:45;;;;;;;9.57;7.55;;;9.60;99.90;;;;;;5090008;28;20047;-57
2023/06/05 00:14:11;;;;;;;10.13;6.75;;;9.50;99.90;;;;;;5089230;28;20084;-57
2023/06/05 00:16:38;;;;;;;13.05;7.35;;;9.50;99.90;;;;;;5088730;28;20093;-57
2023/06/05 00:19:03;;;;;;;9.25;6.53;;;9.60;99.90;;;;;;5089789;28;20067;-57
2023/06/05 00:21:30;;;;;;;9.85;6.35;;;11.10;99.90;;;;;;5089567;28;20123;-57
2023/06/05 00:23:55;;;;;;;10.80;6.82;;;9.80;99.90;;;;;;5089010;28;20058;-57
2023/06/05 00:26:21;;;;;;;10.80;6.65;;;9.80;99.90;;;;;;5089514;28;20583;-57
2023/06/05 00:28:47;;;;;;;9.60;6.78;;;9.90;99.90;;;;;;5089075;28;20051;-57
2023/06/05 00:31:13;;;;;;;11.68;6.47;;;9.90;99.90;;;;;;5089268;28;20040;-57
2023/06/05 00:33:40;;;;;;;10.10;6.57;;;10.00;99.90;;;;;;5092901;28;20100;-57
2023/06/05 00:36:06;;;;;;;9.00;6.18;;;9.90;99.90;;;;;;5093449;28;20400;-57
2023/06/05 00:38:32;;;;;;;9.98;6.53;;;10.10;99.90;;;;;;5094698;28;20043;-57
2023/06/05 00:40:58;;;;;;;9.65;6.53;;;9.90;99.90;;;;;;5095250;28;20534;-57
2023/06/05 00:43:24;;;;;;;9.32;6.25;;;10.10;99.90;;;;;;5093316;28;20028;-57
2023/06/05 00:45:56;;;;;;;9.73;6.80;;;10.20;99.90;;;;;;5092357;28;20511;-57
2023/06/05 00:48:22;;;;;;;11.00;6.47;;;10.00;99.90;;;;;;5092608;28;20071;-57
2023/06/05 00:50:48;;;;;;;12.57;6.57;;;10.20;99.90;;;;;;5095916;28;20047;-57
2023/06/05 00:53:14;;;;;;;9.82;6.38;;;10.40;99.90;;;;;;5092743;28;20039;-57
2023/06/05 00:55:40;;;;;;;10.15;6.80;;;10.20;99.90;;;;;;5093177;28;20080;-57
2023/06/05 00:58:06;;;;;;;10.68;6.65;;;10.10;99.90;;;;;;5093492;28;20079;-57
2023/06/05 01:00:32;;;;;;;10.52;5.90;;;10.20;99.90;;;;;;5094061;28;20218;-57
2023/06/05 01:02:58;;;;;;;8.60;5.95;;;8.40;99.90;;;;;;5091997;28;20039;-58
2023/06/05 01:05:24;;;;;;;13.30;6.80;;;10.30;99.90;;;;;;5092300;28;20043;-57
2023/06/05 01:07:50;;;;;;;11.48;6.35;;;10.40;99.90;;;;;;5091206;28;20048;-57
2023/06/05 01:10:16;;;;;;;8.50;5.95;;;10.50;99.90;;;;;;5092196;28;20048;-57
2023/06/05 01:13:15;;;;;;;12.10;6.82;;;8.50;99.90;;;;;;5092171;28;20043;-57
2023/06/05 01:15:40;;;;;;;9.50;6.40;;;10.40;99.90;;;;;;5043845;28;20054;-57
2023/06/05 01:18:08;;;;;;;13.52;7.05;;;10.40;99.90;;;;;;5093523;28;20052;-58
2023/06/05 01:20:41;;;;;;;11.15;7.15;;;10.40;99.90;;;;;;5091804;28;20044;-57
2023/06/05 01:23:08;;;;;;;12.40;7.00;;;10.40;99.90;;;;;;5092162;28;20131;-57
2023/06/05 01:25:36;;;;;;;10.10;7.13;;;10.40;99.90;;;;;;5091676;28;20043;-57
2023/06/05 01:28:16;;;;;;;9.15;6.72;;;10.60;99.90;;;;;;5092137;28;20056;-58
2023/06/05 01:30:52;;;;;;;12.77;6.85;;;10.50;99.90;;;;;;5055474;28;20161;-57
2023/06/05 01:33:41;;;;;;;10.70;7.05;;;10.30;99.90;;;;;;5092871;28;20050;-57
2023/06/05 01:36:10;;;;;;;9.00;6.57;;;10.40;99.90;;;;;;5074623;28;20043;-57
2023/06/05 01:38:38;;;;;;;10.75;6.93;;;10.30;99.90;;;;;;5092771;28;20269;-56
2023/06/05 01:41:04;;;;;;;9.88;7.05;;;10.20;99.90;;;;;;5091615;28;20125;-57
2023/06/05 01:43:31;;;;;;;14.32;7.75;;;10.20;99.90;;;;;;5090485;28;20035;-58
2023/06/05 01:45:59;;;;;;;10.95;6.63;;;10.40;99.90;;;;;;5087047;28;20043;-60
2023/06/05 01:48:30;;;;;;;10.00;7.82;;;10.20;99.90;;;;;;5092657;28;20043;-57
2023/06/05 01:51:00;;;;;;;9.80;7.00;;;10.20;99.90;;;;;;5093450;28;20438;-58
2023/06/05 01:53:27;;;;;;;12.68;7.57;;;10.20;99.90;;;;;;5091025;28;20481;-56
2023/06/05 01:55:57;;;;;;;11.05;7.30;;;10.30;99.90;;;;;;5091928;28;20050;-57
2023/06/05 01:58:23;;;;;;;14.32;7.55;;;10.20;99.90;;;;;;5092045;28;20050;-57
2023/06/05 02:00:49;;;;;;;12.45;7.30;;;8.40;99.90;;;;;;5090815;28;20499;-57
2023/06/05 02:03:18;;;;;;;11.30;7.40;;;10.40;99.90;;;;;;5092373;28;20084;-57
2023/06/05 02:05:44;;;;;;;10.20;7.00;;;10.40;99.90;;;;;;5093019;28;20079;-57
2023/06/05 02:08:10;;;;;;;11.45;7.15;;;10.20;99.90;;;;;;5091668;28;20535;-57
2023/06/05 02:10:43;;;;;;;10.80;7.45;;;10.40;99.90;;;;;;5074826;28;20039;-57
2023/06/05 02:13:09;;;;;;;9.80;6.85;;;10.30;99.90;;;;;;5073190;28;20503;-57
2023/06/05 02:15:35;;;;;;;11.77;7.10;;;10.30;99.90;;;;;;5092011;28;20507;-57
2023/06/05 02:18:02;;;;;;;9.50;6.78;;;10.30;99.90;;;;;;5092854;28;20965;-58
2023/06/05 02:20:28;;;;;;;9.43;7.20;;;10.30;99.90;;;;;;5093276;28;20089;-58
2023/06/05 02:22:54;;;;;;;8.50;6.03;;;10.20;99.90;;;;;;5090249;28;20052;-58
2023/06/05 02:25:21;;;;;;;9.10;6.72;;;10.30;99.90;;;;;;5091153;28;20087;-57
2023/06/05 02:27:47;;;;;;;8.63;6.40;;;10.20;99.90;;;;;;5090931;28;20058;-57
2023/06/05 02:30:13;;;;;;;14.45;8.07;;;10.20;99.90;;;;;;5091444;28;20044;-58
2023/06/05 02:32:43;;;;;;;13.25;8.57;;;10.10;99.90;;;;;;5090719;28;20504;-57
2023/06/05 02:35:10;;;;;;;11.27;8.20;;;10.40;99.90;;;;;;5090784;28;20466;-58
2023/06/05 02:37:43;;;;;;;13.52;9.23;;;10.60;99.90;;;;;;5091536;28;20364;-58
2023/06/05 02:40:10;;;;;;;11.45;8.77;;;10.30;99.90;;;;;;5073711;28;20051;-57
2023/06/05 02:42:36;;;;;;;11.63;8.50;;;10.60;99.90;;;;;;5090544;28;20043;-57
2023/06/05 02:45:03;;;;;;;10.63;7.82;;;10.50;99.90;;;;;;5090460;28;20776;-58
2023/06/05 02:47:29;;;;;;;10.75;7.88;;;10.40;99.90;;;;;;5090816;28;20055;-58
2023/06/05 02:49:57;;;;;;;14.73;9.48;;;10.30;99.90;;;;;;5090186;28;20122;-58
2023/06/05 02:52:22;;;;;;;12.75;9.07;;;10.60;99.90;;;;;;5092134;28;20050;-57
2023/06/05 02:54:48;;;;;;;13.05;7.43;;;10.30;99.90;;;;;;5089750;28;20044;-58
2023/06/05 02:57:15;;;;;;;13.80;8.80;;;10.40;99.90;;;;;;5089733;28;20058;-57
2023/06/05 02:59:41;;;;;;;10.98;7.88;;;10.40;99.90;;;;;;5068927;28;20036;-57
2023/06/05 03:02:07;;;;;;;12.38;8.02;;;10.50;99.90;;;;;;5092725;28;20039;-58
2023/06/05 03:04:33;;;;;;;10.80;7.60;;;10.30;99.90;;;;;;5071228;28;20230;-57
2023/06/05 03:07:03;;;;;;;10.30;7.20;;;10.40;99.90;;;;;;5088899;28;20123;-57
2023/06/05 03:09:32;;;;;;;10.73;7.60;;;10.40;99.90;;;;;;5089882;28;20032;-57
2023/06/05 03:11:58;;;;;;;12.75;7.82;;;10.30;99.90;;;;;;5070860;28;20056;-56
2023/06/05 03:14:26;;;;;;;8.98;7.30;;;10.40;99.90;;;;;;5090145;28;22083;-57
2023/06/05 03:16:53;;;;;;;9.20;6.90;;;10.50;99.90;;;;;;5072918;28;20044;-58
2023/06/05 03:19:19;;;;;;;11.40;7.57;;;10.50;99.90;;;;;;5089544;28;20071;-58
2023/06/05 03:21:45;;;;;;;10.43;6.80;;;11.20;99.90;;;;;;5091908;28;20059;-57
2023/06/05 03:24:14;;;;;;;11.75;7.80;;;10.40;99.90;;;;;;5090215;28;20036;-58
2023/06/05 03:26:40;;;;;;;9.77;7.10;;;10.40;99.90;;;;;;5089757;28;20056;-58
2023/06/05 03:29:07;;;;;;;7.70;5.93;;;10.30;99.90;;;;;;5091191;28;20036;-58
2023/06/05 03:31:33;;;;;;;9.32;5.57;;;10.50;99.90;;;;;;5090760;28;20071;-58
2023/06/05 03:33:59;;;;;;;7.30;5.85;;;10.60;99.90;;;;;;5090127;28;20048;-57
2023/06/05 03:36:28;;;;;;;9.32;5.95;;;10.50;99.90;;;;;;5089693;28;20071;-58
2023/06/05 03:38:54;;;;;;;7.88;6.10;;;10.50;99.90;;;;;;5090450;28;20044;-57
2023/06/05 03:41:21;;;;;;;11.07;5.65;;;10.70;99.90;;;;;;5090584;28;20043;-57
2023/06/05 03:43:47;;;;;;;8.98;5.70;;;10.60;99.90;;;;;;5090188;28;20039;-57
2023/06/05 03:46:18;;;;;;;9.18;6.00;;;10.40;99.90;;;;;;5072046;28;20047;-57
2023/06/05 03:48:48;;;;;;;8.68;6.38;;;10.50;99.90;;;;;;5089449;28;20048;-57
2023/06/05 03:51:18;;;;;;;8.55;5.05;;;10.60;99.90;;;;;;5074110;28;20437;-58
2023/06/05 03:53:44;;;;;;;8.65;5.32;;;10.80;99.90;;;;;;5056541;28;20126;-57
2023/06/05 03:56:12;;;;;;;7.30;4.82;;;10.90;99.90;;;;;;5091177;28;20047;-57
2023/06/05 03:58:39;;;;;;;7.25;5.00;;;10.80;99.90;;;;;;5071851;28;20191;-57
2023/06/05 04:01:05;;;;;;;7.57;4.70;;;10.60;99.90;;;;;;5090680;28;20126;-57
2023/06/05 04:03:31;;;;;;;8.38;5.20;;;10.70;99.90;;;;;;5090208;28;20399;-57
2023/06/05 04:05:57;;;;;;;7.40;4.93;;;10.90;99.90;;;;;;5090652;28;20044;-55
2023/06/05 04:08:24;;;;;;;8.50;5.53;;;10.80;99.90;;;;;;5095636;28;20508;-58
2023/06/05 04:10:50;;;;;;;9.18;4.65;;;10.80;99.90;;;;;;5093918;28;20535;-57
2023/06/05 04:13:15;;;;;;;6.97;4.50;;;10.80;99.90;;;;;;5093667;28;20074;-57
2023/06/05 04:15:44;;;;;;;8.43;4.75;;;10.90;99.90;;;;;;5094289;28;23289;-58
2023/06/05 04:18:10;;;;;;;6.32;4.65;;;11.00;99.90;;;;;;5095015;28;20043;-57
2023/06/05 04:20:35;;;;;;;7.45;4.97;;;10.90;99.90;;;;;;5092985;28;20484;-57
2023/06/05 04:23:01;;;;;;;7.97;4.30;;;10.80;99.90;;;;;;5075114;28;20755;-57
2023/06/05 04:25:28;;;;;;;7.95;4.60;;;11.00;99.90;;;;;;5093476;28;20530;-57
2023/06/05 04:27:55;;;;;;;7.53;4.38;;;11.00;99.90;;;;;;5094653;28;20051;-57
2023/06/05 04:30:21;;;;;;;8.90;5.65;;;11.30;99.90;;;;;;5073414;28;20051;-57
2023/06/05 04:32:54;;;;;;;6.65;4.43;;;10.90;99.90;;;;;;5075315;28;20054;-57
2023/06/05 04:35:20;;;;;;;6.80;4.30;;;11.30;99.90;;;;;;5092464;28;20046;-56
2023/06/05 04:37:46;;;;;;;7.75;4.80;;;11.20;99.90;;;;;;5093821;28;20082;-58
2023/06/05 04:40:12;;;;;;;9.73;4.85;;;11.20;99.90;;;;;;5093744;28;20134;-56
2023/06/05 04:42:38;;;;;;;8.43;4.80;;;11.30;99.90;;;;;;5092199;28;20043;-57
2023/06/05 04:45:07;;;;;;;8.30;4.60;;;11.20;99.90;;;;;;5091416;28;20304;-57
2023/06/05 04:47:33;;;;;;;6.85;4.80;;;11.30;99.90;;;;;;5091840;28;20867;-57
2023/06/05 04:50:03;;;;;;;6.18;4.63;;;11.50;99.90;;;;;;5073748;28;20127;-57
2023/06/05 04:52:32;;;;;;;6.32;4.22;;;11.60;99.90;;;;;;5093925;28;20089;-56
2023/06/05 04:55:01;;;;;;;7.68;4.60;;;11.40;99.90;;;;;;5092755;28;20559;-57
2023/06/05 04:57:28;;;;;;;7.22;4.18;;;11.50;99.90;;;;;;5073981;28;20605;-57
2023/06/05 04:59:54;;;;;;;5.80;4.30;;;11.50;99.90;;;;;;5090755;28;20058;-57
2023/06/05 05:02:21;;;;;;;5.43;3.65;;;11.50;99.90;;;;;;5091794;28;20134;-57
2023/06/05 05:04:47;;;;;;;5.47;3.35;;;11.70;99.90;;;;;;5092239;28;20630;-57
2023/06/05 05:07:16;;;;;;;5.00;3.47;;;11.80;99.90;;;;;;5092990;28;20291;-57
2023/06/05 05:09:45;;;;;;;6.78;3.80;;;11.80;99.90;;;;;;5091828;28;20109;-56
2023/06/05 05:12:11;;;;;;;5.40;3.20;;;11.80;99.90;;;;;;5092615;28;20448;-57
2023/06/05 05:14:37;;;;;;;5.07;2.70;;;11.80;99.90;;;;;;5092419;28;20084;-58
2023/06/05 05:17:03;;;;;;;3.97;2.40;;;11.80;99.90;;;;;;5091660;28;20059;-57
2023/06/05 05:19:30;;;;;;;5.65;2.78;;;11.50;99.90;;;;;;5091145;28;20122;-57
2023/06/05 05:21:55;;;;;;;5.70;2.38;;;11.80;99.90;;;;;;5093599;28;20181;-57
2023/06/05 05:24:22;;;;;;;4.95;2.30;;;11.90;99.90;;;;;;5091999;28;20081;-57
2023/06/05 05:26:49;;;;;;;3.83;2.20;;;10.60;99.90;;;;;;5091078;28;20074;-57
2023/06/05 05:29:15;;;;;;;8.63;2.40;;;11.90;99.90;;;;;;5089839;28;20078;-57
2023/06/05 05:31:41;;;;;;;4.35;2.20;;;12.00;99.90;;;;;;5089826;28;20500;-57
2023/06/05 05:34:07;;;;;;;4.80;2.42;;;11.90;99.90;;;;;;5090558;28;20040;-57
2023/06/05 05:36:39;;;;;;;4.65;2.40;;;12.10;99.90;;;;;;5091095;28;20036;-57
2023/06/05 05:39:04;;;;;;;4.28;2.20;;;12.00;99.90;;;;;;5091482;28;20719;-57
2023/06/05 05:41:30;;;;;;;4.80;2.10;;;12.00;99.90;;;;;;5091049;28;20059;-56
2023/06/05 05:43:56;;;;;;;4.05;1.90;;;12.20;99.90;;;;;;5091659;28;20036;-57
2023/06/05 05:46:22;;;;;;;3.70;2.17;;;12.30;99.90;;;;;;5091199;28;23592;-56
2023/06/05 05:48:48;;;;;;;3.80;1.90;;;12.20;99.90;;;;;;5091935;28;20215;-56
2023/06/05 05:51:13;;;;;;;4.88;2.58;;;12.40;99.90;;;;;;5074405;28;20522;-56
2023/06/05 05:53:39;;;;;;;3.60;2.10;;;12.30;99.90;;;;;;5092427;28;20529;-56
2023/06/05 05:56:05;;;;;;;4.90;2.00;;;12.60;99.90;;;;;;5093287;28;20042;-57
2023/06/05 05:58:31;;;;;;;4.13;2.10;;;12.50;99.90;;;;;;5091885;28;20039;-56
2023/06/05 06:00:59;;;;;;;4.80;2.10;;;12.60;99.90;;;;;;5091364;28;20039;-56
2023/06/05 06:03:26;;;;;;;3.70;1.80;;;12.80;99.90;;;;;;5092036;28;20054;-57
2023/06/05 06:05:52;;;;;;;6.07;2.15;;;10.70;99.90;;;;;;5091768;28;20074;-56
2023/06/05 06:08:18;;;;;;;4.32;2.30;;;12.40;99.90;;;;;;5073314;28;20036;-56
2023/06/05 06:10:45;;;;;;;6.43;2.53;;;12.50;99.90;;;;;;5091402;28;20047;-57
2023/06/05 06:13:12;;;;;;;6.60;2.40;;;12.60;99.90;;;;;;5091286;28;20079;-56
2023/06/05 06:15:38;;;;;;;4.97;2.38;;;12.70;99.90;;;;;;5074242;28;20056;-58
2023/06/05 06:18:05;;;;;;;5.07;2.67;;;12.90;99.90;;;;;;5092664;28;20044;-55
2023/06/05 06:20:33;;;;;;;5.70;2.50;;;12.90;99.90;;;;;;5092598;28;20162;-57
2023/06/05 06:22:59;;;;;;;6.10;2.47;;;12.90;99.90;;;;;;5059699;28;20035;-56
2023/06/05 06:25:28;;;;;;;5.13;2.25;;;12.80;99.90;;;;;;5091779;28;20127;-56
2023/06/05 06:28:01;;;;;;;5.70;2.58;;;13.00;99.90;;;;;;5091717;28;20090;-56
2023/06/05 06:30:29;;;;;;;5.53;2.60;;;13.10;99.90;;;;;;5091061;28;20048;-56
2023/06/05 06:32:58;;;;;;;6.88;2.58;;;13.10;99.90;;;;;;5091113;28;20897;-57
2023/06/05 06:35:27;;;;;;;5.50;2.60;;;13.30;99.90;;;;;;5091798;28;20053;-56
2023/06/05 06:37:54;;;;;;;5.03;2.63;;;13.00;99.90;;;;;;5092088;28;21077;-56
2023/06/05 06:40:20;;;;;;;4.00;2.50;;;11.30;99.90;;;;;;5073617;28;20043;-56
2023/06/05 06:42:46;;;;;;;6.82;2.70;;;13.40;99.90;;;;;;5092390;28;20376;-57
2023/06/05 06:45:12;;;;;;;13.85;2.65;;;13.20;99.90;;;;;;5091851;28;20047;-57
2023/06/05 06:47:38;;;;;;;6.15;2.00;;;13.40;99.90;;;;;;5091428;28;21544;-57
2023/06/05 06:50:04;;;;;;;3.70;2.10;;;13.70;99.90;;;;;;5091055;28;20047;-56
2023/06/05 06:52:30;;;;;;;7.07;2.67;;;13.80;99.90;;;;;;5092741;28;20112;-57
2023/06/05 06:54:56;;;;;;;5.07;2.47;;;14.10;99.90;;;;;;5090347;28;20043;-56
2023/06/05 06:57:21;;;;;;;4.47;2.60;;;14.40;99.90;;;;;;5091754;28;20047;-57
2023/06/05 06:59:47;;;;;;;4.45;2.30;;;14.40;99.90;;;;;;5073359;28;20074;-57
2023/06/05 07:02:19;;;;;;;7.53;2.53;;;14.40;99.90;;;;;;5091170;28;20050;-57
2023/06/05 07:04:45;;;;;;;;;;;14.30;99.90;;;;;;5090835;28;20051;-58
2023/06/05 07:07:13;;;;;;;6.53;2.45;;;14.00;99.90;;;;;;5089601;28;19924;-57
2023/06/05 07:09:43;;;;;;;10.52;2.90;;;14.20;99.90;;;;;;5090708;28;20062;-57
2023/06/05 07:12:10;;;;;;;4.10;2.60;;;14.30;99.90;;;;;;5089556;28;20391;-56
2023/06/05 07:14:37;;;;;;;7.70;3.03;;;14.40;99.90;;;;;;5089570;28;20214;-57
2023/06/05 07:17:03;;;;;;;4.80;2.80;;;14.70;99.90;;;;;;5091036;28;20059;-56
2023/06/05 07:19:30;;;;;;;5.65;2.38;;;14.80;99.90;;;;;;5091482;28;20123;-57
2023/06/05 07:21:57;;;;;;;5.18;2.70;;;14.60;99.90;;;;;;5091492;28;20074;-57
2023/06/05 07:24:24;;;;;;;4.40;2.53;;;14.90;99.90;;;;;;5089397;28;20511;-56
2023/06/05 07:26:52;;;;;;;5.47;2.60;;;16.10;99.90;;;;;;5090641;28;20078;-57
2023/06/05 07:29:19;;;;;;;5.55;2.25;;;16.30;99.90;;;;;;5090873;28;20055;-57
2023/06/05 07:31:45;;;;;;;5.22;2.40;;;17.40;99.90;;;;;;5090187;28;20119;-57
2023/06/05 07:34:12;;;;;;;4.38;2.38;;;18.40;99.90;;;;;;5089392;28;20043;-57
2023/06/05 07:36:38;;;;;;;5.18;2.55;;;19.40;99.90;;;;;;5089640;28;20047;-61
2023/06/05 07:39:04;;;;;;;5.03;2.28;;;20.10;99.90;;;;;;5089914;28;20051;-58
2023/06/05 07:41:30;;;;;;;5.15;2.60;;;20.90;99.90;;;;;;5093828;28;20074;-57
2023/06/05 07:43:56;;;;;;;4.85;2.40;;;21.10;99.90;;;;;;5094522;28;20122;-57
2023/06/05 07:46:22;;;;;;;4.97;2.63;;;21.20;99.90;;;;;;5077469;28;20446;-57
2023/06/05 07:48:48;;;;;;;4.70;2.53;;;20.80;99.90;;;;;;5095324;28;20063;-58
2023/06/05 07:51:14;;;;;;;7.40;2.70;;;20.60;99.90;;;;;;5095013;28;20051;-58
2023/06/05 07:53:39;;;;;;;4.95;2.30;;;20.50;99.90;;;;;;5078841;28;21021;-57
2023/06/05 07:56:06;;;;;;;5.60;3.55;;;19.40;99.90;;;;;;5095664;28;20405;-57
2023/06/05 07:58:32;;;;;;;6.80;2.58;;;18.80;99.90;;;;;;5095797;28;20050;-57
2023/06/05 08:00:59;;;;;;;4.50;2.80;;;19.10;99.90;;;;;;5094935;28;20109;-57
2023/06/05 08:03:25;;;;;;;5.15;2.50;;;19.20;99.90;;;;;;5094477;28;20128;-57
2023/06/05 08:05:51;;;;;;;6.68;2.00;;;19.70;99.90;;;;;;5073374;28;20488;-58
2023/06/05 08:08:17;;;;;;;4.07;2.30;;;20.30;99.90;;;;;;5093336;28;20074;-58
2023/06/05 08:10:43;;;;;;;6.57;2.80;;;20.60;99.90;;;;;;5095201;28;20130;-58
2023/06/05 08:13:10;;;;;;;4.60;2.78;;;20.90;99.90;;;;;;5093087;28;20083;-56
2023/06/05 08:15:36;;;;;;;6.28;2.42;;;20.80;99.90;;;;;;5092835;28;20035;-58
2023/06/05 08:18:02;;;;;;;4.63;2.45;;;21.40;99.90;;;;;;5093393;28;20193;-58
2023/06/05 08:20:28;;;;;;;4.80;2.33;;;21.70;99.90;;;;;;5094313;28;20062;-57
2023/06/05 08:22:57;;;;;;;5.22;2.00;;;21.70;99.90;;;;;;5094426;28;20054;-57
2023/06/05 08:25:27;;;;;;;3.40;2.05;;;21.30;99.90;;;;;;5092103;28;20099;-58
2023/06/05 08:27:53;;;;;;;3.90;1.83;;;21.50;99.90;;;;;;5092845;28;20480;-57
2023/06/05 08:30:19;;;;;;;3.63;2.00;;;21.90;99.90;;;;;;5093704;28;20048;-58
2023/06/05 08:32:45;;;;;;;4.07;2.20;;;21.90;99.90;;;;;;5092200;28;20412;-57
2023/06/05 08:35:12;;;;;;;3.22;1.90;;;21.70;99.90;;;;;;5092742;28;20067;-57
2023/06/05 08:37:38;;;;;;;4.28;2.30;;;22.00;99.90;;;;;;5093562;28;20114;-57
2023/06/05 08:40:10;;;;;;;4.47;1.98;;;22.10;99.90;;;;;;5092667;28;20073;-57
2023/06/05 08:42:37;;;;;;;4.70;2.40;;;22.00;99.90;;;;;;5094858;28;20054;-57
2023/06/05 08:45:06;;;;;;;5.72;2.25;;;21.70;99.90;;;;;;5093271;28;20090;-57
2023/06/05 08:47:35;;;;;;;7.32;2.28;;;20.50;99.90;;;;;;5091926;28;20051;-57
2023/06/05 08:50:04;;;;;;;6.53;2.55;;;19.80;99.90;;;;;;5091612;28;20060;-57
2023/06/05 08:52:34;;;;;;;8.48;2.53;;;19.90;99.90;;;;;;5094478;28;20047;-57
2023/06/05 08:55:01;;;;;;;5.00;2.47;;;19.30;99.90;;;;;;5091528;28;20192;-57
2023/06/05 08:57:28;;;;;;;4.28;2.15;;;19.30;99.90;;;;;;5093067;28;20113;-60
2023/06/05 08:59:54;;;;;;;5.68;2.60;;;19.50;99.90;;;;;;5092048;28;20043;-57
2023/06/05 09:02:20;;;;;;;4.10;2.30;;;19.80;99.90;;;;;;5093334;28;20084;-57
2023/06/05 09:04:46;;;;;;;4.47;2.30;;;21.80;99.90;;;;;;5074161;28;20180;-57
2023/06/05 09:07:13;;;;;;;3.75;2.08;;;19.90;99.90;;;;;;5071088;28;20058;-57
2023/06/05 09:09:38;;;;;;;4.55;2.45;;;20.30;99.90;;;;;;5092213;28;20535;-57
2023/06/05 09:12:06;;;;;;;5.55;2.55;;;20.20;99.90;;;;;;5074181;28;20152;-57
2023/06/05 09:14:32;;;;;;;6.63;2.00;;;20.30;99.90;;;;;;5091459;28;20051;-57
2023/06/05 09:17:00;;;;;;;8.70;2.60;;;20.20;99.90;;;;;;5093465;28;20569;-57
2023/06/05 09:19:39;;;;;;;7.60;2.30;;;20.00;99.90;;;;;;5091438;28;20055;-57
2023/06/05 09:22:07;;;;;;;6.68;3.30;;;20.10;99.90;;;;;;5095325;28;20138;-57
2023/06/05 09:24:32;;;;;;;4.90;2.60;;;19.80;99.90;;;;;;5093880;28;20563;-57
2023/06/05 09:27:00;;;;;;;4.05;2.38;;;19.50;99.90;;;;;;5092317;28;20252;-57
2023/06/05 09:29:29;;;;;;;6.80;2.80;;;19.10;99.90;;;;;;5091496;28;20058;-57
2023/06/05 09:32:01;;;;;;;9.70;3.10;;;19.20;99.90;;;;;;5091806;28;21098;-56
2023/06/05 09:34:29;;;;;;;7.63;2.92;;;18.80;99.90;;;;;;5091025;28;20055;-56
2023/06/05 09:37:02;;;;;;;7.50;2.60;;;18.60;99.90;;;;;;5091907;28;20036;-57
2023/06/05 09:39:30;;;;;;;4.18;2.30;;;18.40;99.90;;;;;;5092029;28;20658;-57
2023/06/05 09:41:57;;;;;;;6.55;2.60;;;18.50;99.90;;;;;;5093750;28;20492;-57
2023/06/05 09:44:24;;;;;;;5.47;3.03;;;18.70;99.90;;;;;;5093067;28;20447;-57
2023/06/05 09:46:53;;;;;;;5.20;2.58;;;18.90;99.90;;;;;;5090535;28;20112;-56
2023/06/05 09:49:20;;;;;;;4.88;3.13;;;19.10;99.90;;;;;;5090934;28;20051;-57
2023/06/05 09:51:46;;;;;;;5.00;2.95;;;19.10;99.90;;;;;;5071275;28;20051;-57
2023/06/05 09:54:13;;;;;;;5.10;3.00;;;18.90;99.90;;;;;;5093215;28;20051;-58
2023/06/05 09:56:46;;;;;;;4.78;2.67;;;19.20;99.90;;;;;;5093213;28;20146;-57
2023/06/05 09:59:16;;;;;;;4.38;2.60;;;19.30;99.90;;;;;;5091922;28;20574;-57
2023/06/05 10:01:43;;;;;;;6.38;2.88;;;19.60;99.90;;;;;;5092431;28;20044;-57
2023/06/05 10:04:13;;;;;;;5.80;2.75;;;19.50;99.90;;;;;;5069801;28;20056;-57
2023/06/05 10:06:42;;;;;;;5.68;3.05;;;19.30;99.90;;;;;;5090109;28;20119;-56
2023/06/05 10:09:09;;;;;;;5.50;2.47;;;19.10;99.90;;;;;;5089827;28;20043;-57
2023/06/05 10:11:35;;;;;;;4.30;2.53;;;18.70;99.90;;;;;;5090923;28;20321;-57
2023/06/05 10:14:03;;;;;;;6.15;2.92;;;21.10;99.90;;;;;;5091004;28;20324;-60
2023/06/05 10:16:29;;;;;;;6.78;2.67;;;19.10;99.90;;;;;;5072296;28;21160;-56
2023/06/05 10:18:59;;;;;;;4.38;2.40;;;19.10;99.90;;;;;;5091956;28;20101;-57
2023/06/05 10:21:25;;;;;;;5.03;2.78;;;19.30;99.90;;;;;;5091769;28;20187;-57
2023/06/05 10:24:03;;;;;;;4.30;2.22;;;19.30;99.90;;;;;;5093116;28;20055;-57
2023/06/05 10:27:03;;;;;;;4.90;2.78;;;19.00;99.90;;;;;;5092383;28;20423;-57
2023/06/05 10:29:47;;;;;;;4.50;3.00;;;19.50;99.90;;;;;;5072938;28;20123;-57
2023/06/05 10:32:16;;;;;;;5.97;2.60;;;19.60;99.90;;;;;;5090443;28;20492;-56
2023/06/05 10:35:20;;;;;;;4.72;2.90;;;19.60;99.90;;;;;;5092552;28;20066;-56
2023/06/05 10:38:01;;;;;;;4.32;2.70;;;19.60;99.90;;;;;;5092664;28;20394;-56
2023/06/05 10:40:27;;;;;;;3.75;2.40;;;19.30;99.90;;;;;;5090594;28;20039;-56
2023/06/05 10:42:53;;;;;;;4.68;2.72;;;19.20;99.90;;;;;;5091876;28;20601;-57
2023/06/05 10:45:32;;;;;;;5.32;2.35;;;18.80;99.90;;;;;;5091742;28;20043;-57
2023/06/05 10:47:58;;;;;;;5.35;2.60;;;18.90;99.90;;;;;;5089759;28;20540;-56
2023/06/05 10:50:25;;;;;;;4.15;2.40;;;18.90;99.90;;;;;;5091230;28;20051;-56
2023/06/05 10:52:52;;;;;;;5.00;2.47;;;19.30;99.90;;;;;;5091153;28;20078;-56
2023/06/05 10:55:21;;;;;;;4.03;2.20;;;19.30;99.90;;;;;;5090252;28;20810;-56
2023/06/05 10:58:02;;;;;;;4.10;2.25;;;19.50;99.90;;;;;;5088791;28;20259;-56
2023/06/05 11:00:29;;;;;;;4.60;3.00;;;19.30;99.90;;;;;;5090269;28;20039;-56
2023/06/05 11:02:55;;;;;;;4.53;2.70;;;19.70;99.90;;;;;;5089287;28;20047;-56
2023/06/05 11:05:21;;;;;;;4.22;2.85;;;20.00;99.90;;;;;;5090444;28;20035;-56
2023/06/05 11:07:47;;;;;;;6.43;2.30;;;19.90;99.90;;;;;;5069951;28;20059;-56
2023/06/05 11:10:20;;;;;;;4.43;2.35;;;19.60;99.90;;;;;;5090893;28;20058;-56
2023/06/05 11:12:46;;;;;;;5.05;2.88;;;19.60;99.90;;;;;;5090213;28;20080;-55
2023/06/05 11:15:30;;;;;;;5.07;2.47;;;20.00;99.90;;;;;;5089362;28;20059;-56
2023/06/05 11:17:56;;;;;;;5.18;2.97;;;19.30;99.90;;;;;;5089354;28;20130;-56
2023/06/05 11:20:26;;;;;;;5.05;2.33;;;19.80;99.90;;;;;;5089709;28;20082;-55
2023/06/05 11:22:52;;;;;;;5.30;2.30;;;20.00;99.90;;;;;;5090389;28;20122;-56
2023/06/05 11:25:21;;;;;;;4.45;2.50;;;20.10;99.90;;;;;;5090920;28;20183;-56
2023/06/05 11:27:52;;;;;;;4.30;2.47;;;20.30;99.90;;;;;;5088620;28;20047;-56
2023/06/05 11:30:24;;;;;;;4.27;2.47;;;19.80;99.90;;;;;;5088518;28;20062;-56
2023/06/05 11:32:58;;;;;;;4.65;2.72;;;19.60;99.90;;;;;;5070977;28;20161;-56
2023/06/05 11:35:27;;;;;;;4.88;2.45;;;19.70;99.90;;;;;;5089826;28;20052;-57
2023/06/05 11:38:13;;;;;;;8.23;2.58;;;19.90;99.90;;;;;;5090224;28;20093;-57
2023/06/05 11:40:40;;;;;;;4.60;2.40;;;19.50;99.90;;;;;;5088226;28;20047;-57
2023/06/05 11:43:08;;;;;;;3.42;1.85;;;19.60;99.90;;;;;;5071357;28;20044;-56
2023/06/05 11:45:36;;;;;;;5.05;2.67;;;19.80;99.90;;;;;;5091598;28;20036;-57
2023/06/05 11:48:13;;;;;;;4.13;2.40;;;19.90;99.90;;;;;;5071190;28;20087;-57
2023/06/05 11:50:54;;;;;;;5.47;2.53;;;20.00;99.90;;;;;;5089629;28;20055;-57
2023/06/05 11:53:20;;;;;;;4.97;2.67;;;19.70;99.90;;;;;;5091190;28;20500;-57
2023/06/05 11:58:25;;;;;;;4.63;2.70;;;20.10;99.90;;;;;;5088796;28;20138;-56
2023/06/05 12:00:51;;;;;;;5.35;3.13;;;20.00;99.90;;;;;;5089802;28;20124;-57
2023/06/05 12:03:21;;;;;;;4.68;2.97;;;19.80;99.90;;;;;;5088963;28;20040;-57
2023/06/05 12:05:50;;;;;;;5.18;2.78;;;20.00;99.90;;;;;;5071973;28;20044;-56
2023/06/05 12:08:27;;;;;;;4.82;2.78;;;19.80;99.90;;;;;;5089432;28;20892;-57
2023/06/05 12:10:54;;;;;;;5.22;2.75;;;19.70;99.90;;;;;;5089373;28;20044;-56
2023/06/05 12:13:20;;;;;;;4.45;2.30;;;19.80;99.90;;;;;;5090364;28;20040;-57
2023/06/05 12:16:06;;;;;;;5.63;2.80;;;19.70;99.90;;;;;;5090290;28;20036;-57
2023/06/05 12:18:35;;;;;;;4.85;2.65;;;20.00;99.90;;;;;;5089096;28;20496;-56
2023/06/05 12:21:01;;;;;;;5.97;2.92;;;20.50;99.90;;;;;;5089306;28;20073;-56
2023/06/05 12:23:33;;;;;;;5.93;3.30;;;20.40;99.90;;;;;;5091378;28;20043;-57
2023/06/05 12:26:03;;;;;;;5.85;2.53;;;19.90;99.90;;;;;;5088920;28;20120;-57
2023/06/05 12:28:30;;;;;;;7.43;3.10;;;20.20;99.90;;;;;;5090078;28;20395;-57
2023/06/05 12:30:57;;;;;;;5.82;2.83;;;20.30;99.90;;;;;;5092770;28;20053;-57
2023/06/05 12:33:24;;;;;;;6.90;3.28;;;20.00;99.90;;;;;;5094094;28;20047;-57
2023/06/05 12:36:22;;;;;;;4.45;2.90;;;19.50;99.90;;;;;;5091558;28;20039;-56
2023/06/05 12:38:48;;;;;;;5.10;2.60;;;19.20;99.90;;;;;;5025429;28;20050;-57
2023/06/05 12:41:13;;;;;;;6.80;3.47;;;19.00;99.90;;;;;;5093438;28;20040;-57
2023/06/05 12:43:39;;;;;;;5.85;3.03;;;19.00;99.90;;;;;;5092642;28;20043;-56
2023/06/05 12:46:07;;;;;;;5.10;3.20;;;19.30;99.90;;;;;;5092262;28;20617;-57
2023/06/05 12:48:33;;;;;;;4.50;2.75;;;19.30;99.90;;;;;;5090874;28;20055;-56
2023/06/05 12:51:00;;;;;;;6.07;3.00;;;19.50;99.90;;;;;;5092349;28;20042;-57
2023/06/05 12:53:26;;;;;;;4.75;2.92;;;19.40;99.90;;;;;;5091813;28;20075;-57